Big Piney, WY weather

Big Piney-Marbleton Airport (AMOS), Big Piney, WY: 9/02/2014 16:53
Visibility10 statute milesclear sky
View 7-Day Forecast
Area Summary
Sky/CloudsSky Clear
Weather [last 24 hours]None
Pressure30.06 in.Hg (1018 hPa)
Dew Point28.9 F (-1.7 C)
Relative Humidity18.2 %
Temperature75 F (23.9 C)red thermometer
Reading TimeMinimum to Maximum Temperature
6-hr ending 9/2@11:5330.9 F to 64 F (-0.6 C to 17.8 C)
6-hr ending 9/2@05:5332 F to 43 F (0 C to 6.1 C)
6-hr ending 9/1@23:5341 F to 66 F (5 C to 18.9 C)
6-hr ending 9/1@17:5357.9 F to 68 F (14.4 C to 20 C)
24-hr ending 9/2@00:5332 F to 68 F (0 C to 20 C)
Wind16.1 MPH (14 KT) green arrow pointing 270 degrees
Wind FromWest (270 Degrees)
Rolling 24-hr Peak Wind29.9 MPH (26 KT) on 9/2@15:06
Rolling 24-hr Peak Wind FromWest (270 Degrees)
Twilight Begins06:18Sunshine Yesterday
Sunrise06:47N/A
Sunset19:51
Twilight Ends20:20
METARKBPI 022253Z AUTO 27014KT 10SM CLR 24/M02 A3006 RMK AO2 SLP105 T02391017
Tags: